Time;durP1;ratioP1;P1;durP2;ratioP2;P2;SDS_P1;SDS_P2;PMS_P1;PMS_P2;Temp;Humidity;BMP_temperature;BMP_pressure;BME280_temperature;BME280_humidity;BME280_pressure;Samples;Min_cycle;Max_cycle;Signal;HPM_P1;HPM_P2
2022/09/30 00:00:45;;;;;;;13.47;7.93;;;;;;;-150.27;100.00;61272.81;5217673;28;20065;-74
2022/09/30 00:03:16;;;;;;;16.37;9.03;;;;;;;-150.27;100.00;61272.81;5213996;28;20025;-73
2022/09/30 00:05:55;;;;;;;9.23;7.90;;;;;;;-150.27;100.00;61272.81;5213805;28;20033;-74
2022/09/30 00:08:26;;;;;;;11.13;8.10;;;;;;;-150.27;100.00;61272.81;5214165;28;20048;-73
2022/09/30 00:11:10;;;;;;;10.20;8.37;;;;;;;-150.27;100.00;61272.81;5213021;28;20459;-73
2022/09/30 00:13:42;;;;;;;9.87;7.07;;;;;;;-150.27;100.00;61272.81;5214350;28;20073;-74
2022/09/30 00:16:15;;;;;;;11.13;8.80;;;;;;;-150.27;100.00;61272.81;5214178;28;20118;-74
2022/09/30 00:18:46;;;;;;;9.87;8.20;;;;;;;-150.27;100.00;61272.81;5214169;28;20034;-74
2022/09/30 00:21:18;;;;;;;12.60;8.47;;;;;;;-150.27;100.00;61272.81;5213389;28;20041;-73
2022/09/30 00:23:50;;;;;;;14.73;8.50;;;;;;;-150.27;100.00;61272.81;5214518;28;20033;-74
2022/09/30 00:26:22;;;;;;;11.27;8.33;;;;;;;-150.27;100.00;61272.81;5214363;28;20109;-73
2022/09/30 00:28:57;;;;;;;12.57;9.00;;;;;;;-150.27;100.00;61272.81;5212994;28;20223;-74
2022/09/30 00:31:31;;;;;;;15.55;8.68;;;;;;;-150.27;100.00;61272.81;5213846;28;20079;-73
2022/09/30 00:34:06;;;;;;;11.10;8.45;;;;;;;-150.27;100.00;61272.81;5213736;28;20509;-73
2022/09/30 00:36:49;;;;;;;13.90;8.50;;;;;;;-150.27;100.00;61272.81;5230043;28;20068;-73
2022/09/30 00:39:23;;;;;;;11.47;8.20;;;;;;;-150.27;100.00;61272.81;5227482;28;20010;-73
2022/09/30 00:41:58;;;;;;;14.43;8.48;;;;;;;-150.27;100.00;61272.81;5214252;28;20022;-73
2022/09/30 00:44:44;;;;;;;;;;;;;;;-150.27;100.00;61272.81;5213481;28;20044;-74
2022/09/30 00:47:39;;;;;;;10.50;7.43;;;;;;;-150.27;100.00;61272.81;5213403;28;19996;-73
2022/09/30 00:50:29;;;;;;;11.07;8.38;;;;;;;-150.27;100.00;61272.81;5213001;28;20029;-73
2022/09/30 00:53:22;;;;;;;11.50;7.43;;;;;;;-150.27;100.00;61272.81;5232669;28;20025;-73
2022/09/30 00:56:05;;;;;;;12.73;7.60;;;;;;;-150.27;100.00;61272.81;5233751;28;20022;-73
2022/09/30 00:58:48;;;;;;;9.93;7.03;;;;;;;-150.27;100.00;61272.81;5234000;28;20041;-74
2022/09/30 01:01:21;;;;;;;12.37;7.63;;;;;;;-150.27;100.00;61272.81;5234011;28;20109;-74
2022/09/30 01:04:00;;;;;;;8.37;6.77;;;;;;;-150.27;100.00;61272.81;5227251;28;20864;-74
2022/09/30 01:06:32;;;;;;;14.23;7.30;;;;;;;-150.27;100.00;61272.81;5212461;28;20077;-73
2022/09/30 01:09:03;;;;;;;10.20;6.70;;;;;;;-150.27;100.00;61272.81;5213942;28;20091;-74
2022/09/30 01:11:35;;;;;;;10.43;6.77;;;;;;;-150.27;100.00;61272.81;5213431;28;20466;-71
2022/09/30 01:14:12;;;;;;;13.27;6.70;;;;;;;-150.27;100.00;61272.81;5255330;22;20069;-72
2022/09/30 01:17:05;;;;;;;9.67;7.30;;;;;;;-150.27;100.00;61272.81;5210553;28;20033;-74
2022/09/30 01:20:02;;;;;;;12.80;7.10;;;;;;;-150.27;100.00;61272.81;5214120;28;20034;-73
2022/09/30 01:22:39;;;;;;;13.93;6.73;;;;;;;-150.27;100.00;61272.81;5229041;28;20423;-72
2022/09/30 01:25:31;;;;;;;13.13;6.90;;;;;;;-150.27;100.00;61272.81;5231823;28;20095;-73
2022/09/30 01:28:22;;;;;;;10.00;6.20;;;;;;;-150.27;100.00;61272.81;5216943;28;20545;-73
2022/09/30 01:31:21;;;;;;;12.17;7.83;;;;;;;-150.27;100.00;61272.81;5216537;28;20513;-72
2022/09/30 01:34:05;;;;;;;16.27;6.93;;;;;;;-150.27;100.00;61272.81;5221319;28;20044;-72
2022/09/30 01:36:58;;;;;;;16.25;6.57;;;;;;;-150.27;100.00;61272.81;5192274;28;20081;-72
2022/09/30 01:40:01;;;;;;;10.40;6.50;;;;;;;-150.27;100.00;61272.81;5205206;28;20534;-72
2022/09/30 01:42:40;;;;;;;20.67;7.27;;;;;;;-150.27;100.00;61272.81;5212880;28;20225;-72
2022/09/30 01:45:17;;;;;;;8.07;5.90;;;;;;;-150.27;100.00;61272.81;5213213;28;20449;-73
2022/09/30 01:48:07;;;;;;;13.07;7.07;;;;;;;-150.27;100.00;61272.81;5213682;28;20033;-73
2022/09/30 01:51:15;;;;;;;12.33;6.87;;;;;;;-150.27;100.00;61272.81;5212285;28;20022;-73
2022/09/30 01:53:58;;;;;;;13.47;6.77;;;;;;;-150.27;100.00;61272.81;5213832;28;20030;-73
2022/09/30 01:56:39;;;;;;;10.40;7.00;;;;;;;-150.27;100.00;61272.81;5214214;28;20100;-73
2022/09/30 01:59:18;;;;;;;8.47;6.73;;;;;;;-150.27;100.00;61272.81;5214330;28;20026;-73
2022/09/30 02:02:14;;;;;;;14.67;7.77;;;;;;;-150.27;100.00;61272.81;5213920;28;20049;-73
2022/09/30 02:04:51;;;;;;;15.75;7.07;;;;;;;-150.27;100.00;61272.81;5214755;28;20037;-73
2022/09/30 02:07:37;;;;;;;10.53;7.40;;;;;;;-150.27;100.00;61272.81;5235764;28;20025;-72
2022/09/30 02:10:15;;;;;;;9.90;6.93;;;;;;;-150.27;100.00;61272.81;5231628;28;20695;-73
2022/09/30 02:12:51;;;;;;;15.57;7.50;;;;;;;-150.27;100.00;61272.81;5230860;28;20133;-73
2022/09/30 02:15:31;;;;;;;10.30;6.60;;;;;;;-150.27;100.00;61272.81;5235577;28;20080;-73
2022/09/30 02:18:14;;;;;;;10.77;7.77;;;;;;;-150.27;100.00;61272.81;5217430;28;20080;-74
2022/09/30 02:20:56;;;;;;;15.50;7.27;;;;;;;-150.27;100.00;61272.81;5215911;28;20034;-73
2022/09/30 02:23:32;;;;;;;11.70;7.97;;;;;;;-150.27;100.00;61272.81;5218564;28;20117;-72
2022/09/30 02:26:10;;;;;;;8.40;7.27;;;;;;;-150.27;100.00;61272.81;5217101;28;20026;-73
2022/09/30 02:28:50;;;;;;;11.70;7.30;;;;;;;-150.27;100.00;61272.81;5216946;28;20399;-73
2022/09/30 02:31:24;;;;;;;8.90;7.87;;;;;;;-150.27;100.00;61272.81;5218808;28;20030;-73
2022/09/30 02:33:59;;;;;;;15.73;9.00;;;;;;;-150.27;100.00;61272.81;5217056;28;20041;-73
2022/09/30 02:36:38;;;;;;;14.87;7.93;;;;;;;-150.27;100.00;61272.81;5223510;28;20308;-73
2022/09/30 02:39:19;;;;;;;10.67;7.93;;;;;;;-150.27;100.00;61272.81;5217915;28;20026;-73
2022/09/30 02:41:58;;;;;;;10.20;8.37;;;;;;;-150.27;100.00;61272.81;5221115;28;20525;-74
2022/09/30 02:44:30;;;;;;;11.90;7.80;;;;;;;-150.27;100.00;61272.81;5201667;28;20021;-73
2022/09/30 02:47:09;;;;;;;12.40;8.77;;;;;;;-150.27;100.00;61272.81;5217146;28;20033;-72
2022/09/30 02:49:48;;;;;;;10.37;8.27;;;;;;;-150.27;100.00;61272.81;5214832;28;20044;-73
2022/09/30 02:52:22;;;;;;;11.80;9.03;;;;;;;-150.27;100.00;61272.81;5233857;28;20025;-73
2022/09/30 02:55:02;;;;;;;12.50;8.25;;;;;;;-150.27;100.00;61272.81;5236420;28;20072;-73
2022/09/30 02:57:55;;;;;;;13.73;8.17;;;;;;;-150.27;100.00;61272.81;5235192;28;20675;-73
2022/09/30 03:00:26;;;;;;;9.13;8.03;;;;;;;-150.27;100.00;61272.81;5199411;28;20026;-72
2022/09/30 03:03:14;;;;;;;12.63;9.10;;;;;;;-150.27;100.00;61272.81;5216596;28;20036;-72
2022/09/30 03:05:48;;;;;;;11.57;8.57;;;;;;;-150.27;100.00;61272.81;5216168;28;20037;-72
2022/09/30 03:08:20;;;;;;;11.48;8.77;;;;;;;-150.27;100.00;61272.81;5215979;28;20034;-72
2022/09/30 03:10:51;;;;;;;16.60;9.50;;;;;;;-150.27;100.00;61272.81;5219741;28;20068;-73
2022/09/30 03:13:59;;;;;;;19.50;9.67;;;;;;;-150.27;100.00;61272.81;5218136;28;20045;-72
2022/09/30 03:16:50;;;;;;;15.87;9.50;;;;;;;-150.27;100.00;61272.81;5220457;28;20033;-72
2022/09/30 03:20:05;;;;;;;18.80;10.47;;;;;;;-150.27;100.00;61272.81;5214500;28;20033;-72
2022/09/30 03:22:56;;;;;;;11.63;9.77;;;;;;;-150.27;100.00;61272.81;5215380;28;20029;-73
2022/09/30 03:25:31;;;;;;;11.87;9.67;;;;;;;-150.27;100.00;61272.81;5230290;28;20168;-74
2022/09/30 03:28:14;;;;;;;13.25;9.35;;;;;;;-150.27;100.00;61272.81;5215702;28;20147;-73
2022/09/30 03:30:55;;;;;;;11.30;9.93;;;;;;;-150.27;100.00;61272.81;5219410;28;20100;-72
2022/09/30 03:33:41;;;;;;;15.30;10.00;;;;;;;-150.27;100.00;61272.81;5225117;28;20052;-72
2022/09/30 03:36:17;;;;;;;13.87;11.40;;;;;;;-150.27;100.00;61272.81;5214430;28;20480;-72
2022/09/30 03:39:14;;;;;;;12.43;10.83;;;;;;;-150.27;100.00;61272.81;5224503;28;20032;-72
2022/09/30 03:41:54;;;;;;;14.10;11.97;;;;;;;-150.27;100.00;61272.81;5235738;28;20135;-72
2022/09/30 03:44:44;;;;;;;12.53;11.23;;;;;;;-150.27;100.00;61272.81;5231583;28;20033;-73
2022/09/30 03:47:18;;;;;;;17.17;10.33;;;;;;;-150.27;100.00;61272.81;5214584;28;20049;-74
2022/09/30 03:49:54;;;;;;;14.82;11.23;;;;;;;-150.27;100.00;61272.81;5230293;28;20026;-73
2022/09/30 03:52:28;;;;;;;13.30;11.10;;;;;;;-150.27;100.00;61272.81;5215297;28;20072;-72
2022/09/30 03:55:04;;;;;;;11.75;10.50;;;;;;;-150.27;100.00;61272.81;5234848;28;20025;-72
2022/09/30 03:57:35;;;;;;;12.10;10.80;;;;;;;-150.27;100.00;61272.81;5213746;28;20445;-73
2022/09/30 04:00:07;;;;;;;12.07;10.73;;;;;;;-150.27;100.00;61272.81;5224704;28;20112;-72
2022/09/30 04:02:38;;;;;;;18.40;12.30;;;;;;;-150.27;100.00;61272.81;5215129;28;20034;-72
2022/09/30 04:05:10;;;;;;;11.83;10.63;;;;;;;-150.27;100.00;61272.81;5226463;28;20032;-73
2022/09/30 04:07:42;;;;;;;13.90;10.70;;;;;;;-150.27;100.00;61272.81;5213908;28;20026;-73
2022/09/30 04:10:13;;;;;;;12.97;11.07;;;;;;;-150.27;100.00;61272.81;5227186;28;20056;-73
2022/09/30 04:12:44;;;;;;;13.13;10.97;;;;;;;-150.27;100.00;61272.81;5214332;28;20068;-73
2022/09/30 04:15:15;;;;;;;12.20;11.00;;;;;;;-150.27;100.00;61272.81;5214669;28;20022;-73
2022/09/30 04:17:47;;;;;;;14.27;10.67;;;;;;;-150.27;100.00;61272.81;5213984;28;20049;-73
2022/09/30 04:20:18;;;;;;;14.07;11.70;;;;;;;-150.27;100.00;61272.81;5213839;28;20041;-73
2022/09/30 04:22:49;;;;;;;12.27;10.97;;;;;;;-150.27;100.00;61272.81;5214810;28;20116;-73
2022/09/30 04:25:21;;;;;;;13.97;10.60;;;;;;;-150.27;100.00;61272.81;5214645;28;20080;-73
2022/09/30 04:27:52;;;;;;;17.53;12.50;;;;;;;-150.27;100.00;61272.81;5214443;28;20026;-73
2022/09/30 04:30:24;;;;;;;14.53;11.70;;;;;;;-150.27;100.00;61272.81;5214084;28;20030;-72
2022/09/30 04:32:55;;;;;;;16.80;12.07;;;;;;;-150.27;100.00;61272.81;5214580;28;20138;-73
2022/09/30 04:35:28;;;;;;;15.50;11.60;;;;;;;-150.27;100.00;61272.81;5213153;28;20038;-73
2022/09/30 04:38:00;;;;;;;14.23;11.80;;;;;;;-150.27;100.00;61272.81;5229854;28;20124;-73
2022/09/30 04:40:36;;;;;;;13.33;11.63;;;;;;;-150.27;100.00;61272.81;5214241;28;20108;-73
2022/09/30 04:43:08;;;;;;;15.13;12.00;;;;;;;-150.27;100.00;61272.81;5234668;28;20049;-73
2022/09/30 04:45:43;;;;;;;14.30;12.67;;;;;;;-150.27;100.00;61272.81;5220420;28;20076;-73
2022/09/30 04:48:15;;;;;;;13.47;12.07;;;;;;;-150.27;100.00;61272.81;5214378;28;20113;-73
2022/09/30 04:50:47;;;;;;;15.60;12.00;;;;;;;-150.27;100.00;61272.81;5230320;28;20132;-73
2022/09/30 04:53:19;;;;;;;17.13;12.23;;;;;;;-150.27;100.00;61272.81;5227061;28;20038;-73
2022/09/30 04:55:50;;;;;;;13.40;12.00;;;;;;;-150.27;100.00;61272.81;5214412;28;20077;-73
2022/09/30 04:58:22;;;;;;;15.10;13.23;;;;;;;-150.27;100.00;61272.81;5231536;28;20091;-73
2022/09/30 05:01:01;;;;;;;14.90;13.40;;;;;;;-150.27;100.00;61272.81;5221832;28;20117;-72
2022/09/30 05:03:33;;;;;;;14.07;12.57;;;;;;;-150.27;100.00;61272.81;5230447;28;20026;-73
2022/09/30 05:06:05;;;;;;;17.20;13.47;;;;;;;-150.27;100.00;61272.81;5226677;28;20037;-73
2022/09/30 05:08:37;;;;;;;14.80;13.30;;;;;;;-150.27;100.00;61272.81;5218946;28;20025;-73
2022/09/30 05:11:13;;;;;;;14.77;12.50;;;;;;;-150.27;100.00;61272.81;5214310;28;20034;-73
2022/09/30 05:13:46;;;;;;;19.33;13.27;;;;;;;-150.27;100.00;61272.81;5219986;28;20125;-73
2022/09/30 05:16:17;;;;;;;18.97;13.93;;;;;;;-150.27;100.00;61272.81;5233994;28;20038;-73
2022/09/30 05:18:49;;;;;;;14.63;12.70;;;;;;;-150.27;100.00;61272.81;5216373;28;20041;-73
2022/09/30 05:21:20;;;;;;;15.83;12.77;;;;;;;-150.27;100.00;61272.81;5212404;28;20371;-73
2022/09/30 05:23:52;;;;;;;15.23;12.67;;;;;;;-150.27;100.00;61272.81;5222582;28;20079;-73
2022/09/30 05:26:24;;;;;;;19.00;13.87;;;;;;;-150.27;100.00;61272.81;5227952;28;20118;-72
2022/09/30 05:28:56;;;;;;;18.00;13.87;;;;;;;-150.27;100.00;61272.81;5218775;28;20598;-72
2022/09/30 05:31:27;;;;;;;16.33;13.70;;;;;;;-150.27;100.00;61272.81;5217282;28;20030;-73
2022/09/30 05:33:59;;;;;;;16.03;14.33;;;;;;;-150.27;100.00;61272.81;5221855;28;20040;-72
2022/09/30 05:36:30;;;;;;;22.00;15.23;;;;;;;-150.27;100.00;61272.81;5215465;28;20029;-73
2022/09/30 05:39:02;;;;;;;21.30;14.70;;;;;;;-150.27;100.00;61272.81;5214626;28;20412;-72
2022/09/30 05:41:33;;;;;;;16.43;14.00;;;;;;;-150.27;100.00;61272.81;5217131;28;20155;-72
2022/09/30 05:44:05;;;;;;;17.57;13.53;;;;;;;-150.27;100.00;61272.81;5218432;28;20527;-73
2022/09/30 05:46:36;;;;;;;17.37;14.30;;;;;;;-150.27;100.00;61272.81;5228314;28;20047;-73
2022/09/30 05:49:07;;;;;;;17.50;14.70;;;;;;;-150.27;100.00;61272.81;5220369;28;20030;-72
2022/09/30 05:51:39;;;;;;;16.23;13.67;;;;;;;-150.27;100.00;61272.81;5217791;28;20469;-73
2022/09/30 05:54:10;;;;;;;15.50;13.90;;;;;;;-150.27;100.00;61272.81;5217280;28;20018;-72
2022/09/30 05:56:42;;;;;;;18.27;14.30;;;;;;;-150.27;100.00;61272.81;5217337;28;20026;-71
2022/09/30 05:59:13;;;;;;;17.67;13.53;;;;;;;-150.27;100.00;61272.81;5216796;28;20022;-73
2022/09/30 06:01:44;;;;;;;17.50;14.00;;;;;;;-150.27;100.00;61272.81;5216498;28;20540;-72
2022/09/30 06:04:16;;;;;;;18.10;13.77;;;;;;;-150.27;100.00;61272.81;5217057;28;20440;-73
2022/09/30 06:06:48;;;;;;;15.13;13.43;;;;;;;-150.27;100.00;61272.81;5216525;28;20072;-73
2022/09/30 06:09:19;;;;;;;23.37;14.73;;;;;;;-150.27;100.00;61272.81;5217884;28;20584;-73
2022/09/30 06:11:51;;;;;;;15.90;13.90;;;;;;;-150.27;100.00;61272.81;5217560;28;20022;-72
2022/09/30 06:14:23;;;;;;;15.23;13.30;;;;;;;-150.27;100.00;61272.81;5215761;28;20073;-73
2022/09/30 06:16:54;;;;;;;18.37;13.37;;;;;;;-150.27;100.00;61272.81;5214729;28;20485;-73
2022/09/30 06:19:29;;;;;;;15.93;13.80;;;;;;;-150.27;100.00;61272.81;5216429;28;20026;-72
2022/09/30 06:22:01;;;;;;;18.00;14.30;;;;;;;-150.27;100.00;61272.81;5216174;28;20025;-72
2022/09/30 06:24:32;;;;;;;20.13;13.10;;;;;;;-150.27;100.00;61272.81;5215662;28;20427;-73
2022/09/30 06:27:03;;;;;;;16.80;14.00;;;;;;;-150.27;100.00;61272.81;5216745;28;20018;-72
2022/09/30 06:29:34;;;;;;;17.03;13.10;;;;;;;-150.27;100.00;61272.81;5214199;28;20117;-73
2022/09/30 06:32:06;;;;;;;17.37;13.90;;;;;;;-150.27;100.00;61272.81;5216642;28;20461;-72
2022/09/30 06:34:37;;;;;;;18.30;15.43;;;;;;;-150.27;100.00;61272.81;5213488;28;20038;-72
2022/09/30 06:37:10;;;;;;;17.27;14.20;;;;;;;-150.27;100.00;61272.81;5215585;28;20038;-72
2022/09/30 06:39:41;;;;;;;15.90;14.07;;;;;;;-150.27;100.00;61272.81;5215593;28;20059;-72
2022/09/30 06:42:13;;;;;;;16.30;13.67;;;;;;;-150.27;100.00;61272.81;5216352;28;20048;-72
2022/09/30 06:44:44;;;;;;;17.83;15.23;;;;;;;-150.27;100.00;61272.81;5215627;28;20034;-72
2022/09/30 06:47:16;;;;;;;20.87;15.43;;;;;;;-150.27;100.00;61272.81;5212121;28;20041;-73
2022/09/30 06:49:47;;;;;;;19.33;15.73;;;;;;;-150.27;100.00;61272.81;5213806;28;20022;-71
2022/09/30 06:52:19;;;;;;;20.13;15.87;;;;;;;-150.27;100.00;61272.81;5215548;28;20030;-68
2022/09/30 06:54:50;;;;;;;24.53;17.80;;;;;;;-150.27;100.00;61272.81;5215476;28;20029;-69
2022/09/30 06:57:23;;;;;;;20.43;15.50;;;;;;;-150.27;100.00;61272.81;5214327;28;20033;-70
2022/09/30 06:59:55;;;;;;;27.37;20.20;;;;;;;-150.27;100.00;61272.81;5215173;28;20030;-70
2022/09/30 07:02:28;;;;;;;22.50;18.33;;;;;;;-150.27;100.00;61272.81;5213808;28;20030;-72
2022/09/30 07:05:02;;;;;;;24.87;18.70;;;;;;;-150.27;100.00;61272.81;5214395;28;20032;-73
2022/09/30 07:07:35;;;;;;;24.23;19.63;;;;;;;-150.27;100.00;61272.81;5214462;28;20034;-72
2022/09/30 07:10:07;;;;;;;27.23;19.23;;;;;;;-150.27;100.00;61272.81;5215407;28;20435;-72
2022/09/30 07:12:38;;;;;;;31.53;22.23;;;;;;;-150.27;100.00;61272.81;5213037;28;20034;-72
2022/09/30 07:15:09;;;;;;;31.60;20.90;;;;;;;-150.27;100.00;61272.81;5215639;28;20030;-72
2022/09/30 07:17:41;;;;;;;28.43;18.80;;;;;;;-150.27;100.00;61272.81;5214069;28;20018;-73
2022/09/30 07:20:13;;;;;;;25.83;19.57;;;;;;;-150.27;100.00;61272.81;5229624;28;20049;-73
2022/09/30 07:22:45;;;;;;;31.87;22.97;;;;;;;-150.27;100.00;61272.81;5214737;28;20026;-73
2022/09/30 07:25:16;;;;;;;26.17;19.17;;;;;;;-150.27;100.00;61272.81;5215326;28;20030;-73
2022/09/30 07:27:48;;;;;;;26.27;21.43;;;;;;;-150.27;100.00;61272.81;5215674;28;20108;-72
2022/09/30 07:30:19;;;;;;;25.80;21.80;;;;;;;-150.27;100.00;61272.81;5229611;28;20030;-72
2022/09/30 07:32:50;;;;;;;28.77;22.43;;;;;;;-150.27;100.00;61272.81;5214234;28;20025;-73
2022/09/30 07:35:22;;;;;;;27.27;20.67;;;;;;;-150.27;100.00;61272.81;5223283;28;20022;-73
2022/09/30 07:37:53;;;;;;;26.97;22.03;;;;;;;-150.27;100.00;61272.81;5215317;28;20562;-72
2022/09/30 07:40:30;;;;;;;24.90;20.23;;;;;;;-150.27;100.00;61272.81;5214299;28;20036;-73
2022/09/30 07:43:03;;;;;;;22.97;19.00;;;;;;;-150.27;100.00;61272.81;5215947;28;20029;-73
2022/09/30 07:45:35;;;;;;;22.77;18.50;;;;;;;-150.27;100.00;61272.81;5214695;28;20022;-72
2022/09/30 07:48:37;;;;;;;23.33;18.93;;;;;;;-150.27;100.00;61272.81;5214899;28;20139;-73
2022/09/30 07:50:58;;;;;;;20.97;18.20;;;;;;;-150.27;100.00;61272.81;5213294;28;20076;-72
2022/09/30 07:53:29;;;;;;;19.47;17.37;;;;;;;-150.27;100.00;61272.81;5229055;28;20482;-73
2022/09/30 07:56:05;;;;;;;23.00;18.63;;;;;;;-150.27;100.00;61272.81;5213829;28;20052;-73
2022/09/30 07:58:36;;;;;;;19.03;17.03;;;;;;;-150.27;100.00;61272.81;5213362;28;20030;-73
2022/09/30 08:01:08;;;;;;;18.57;16.20;;;;;;;-150.27;100.00;61272.81;5213491;28;20578;-73
2022/09/30 08:03:43;;;;;;;17.47;15.73;;;;;;;-150.27;100.00;61272.81;5211024;28;20057;-73
2022/09/30 08:06:24;;;;;;;15.37;13.83;;;;;;;-150.27;100.00;61272.81;5214031;28;20037;-73
2022/09/30 08:08:57;;;;;;;16.50;14.73;;;;;;;-150.27;100.00;61272.81;5214183;28;20072;-73
2022/09/30 08:11:32;;;;;;;15.03;12.73;;;;;;;-150.27;100.00;61272.81;5213886;28;20037;-72
2022/09/30 08:14:04;;;;;;;15.70;12.97;;;;;;;-150.27;100.00;61272.81;5212603;28;20096;-72
2022/09/30 08:16:36;;;;;;;16.43;13.97;;;;;;;-150.27;100.00;61272.81;5211869;28;20070;-73
2022/09/30 08:19:17;;;;;;;14.27;12.77;;;;;;;-150.27;100.00;61272.81;5212901;28;20096;-73
2022/09/30 08:21:49;;;;;;;16.00;12.90;;;;;;;-150.27;100.00;61272.81;5214098;28;20041;-73
2022/09/30 08:24:21;;;;;;;15.07;13.47;;;;;;;-150.27;100.00;61272.81;5213174;28;20088;-73
2022/09/30 08:26:54;;;;;;;17.83;14.67;;;;;;;-150.27;100.00;61272.81;5214044;28;20057;-73
2022/09/30 08:29:25;;;;;;;16.27;13.97;;;;;;;-150.27;100.00;61272.81;5211771;28;20034;-73
2022/09/30 08:31:57;;;;;;;17.03;12.03;;;;;;;-150.27;100.00;61272.81;5211949;28;20535;-73
2022/09/30 08:34:32;;;;;;;12.93;11.63;;;;;;;-150.27;100.00;61272.81;5211799;28;20477;-72
2022/09/30 08:37:03;;;;;;;12.60;10.70;;;;;;;-150.27;100.00;61272.81;5212122;28;20377;-73
2022/09/30 08:39:38;;;;;;;14.75;11.93;;;;;;;-150.27;100.00;61272.81;5213325;28;20043;-72
2022/09/30 08:42:27;;;;;;;11.50;10.18;;;;;;;-150.27;100.00;61272.81;5212768;28;20022;-72
2022/09/30 08:45:14;;;;;;;13.98;10.93;;;;;;;-150.27;100.00;61272.81;5210703;28;20046;-73
2022/09/30 08:48:17;;;;;;;14.93;10.95;;;;;;;-150.27;100.00;61272.81;5213301;28;20060;-73
2022/09/30 08:50:56;;;;;;;14.82;11.27;;;;;;;-150.27;100.00;61272.81;5217073;28;20053;-73
2022/09/30 08:53:36;;;;;;;12.20;10.45;;;;;;;-150.27;100.00;61272.81;5214023;28;20030;-73
2022/09/30 08:56:18;;;;;;;11.15;9.95;;;;;;;-150.27;100.00;61272.81;5213723;28;20089;-73
2022/09/30 08:58:55;;;;;;;14.77;10.18;;;;;;;-150.27;100.00;61272.81;5213824;28;20037;-73
2022/09/30 09:01:29;;;;;;;13.82;9.43;;;;;;;-150.27;100.00;61272.81;5213536;28;20037;-73
2022/09/30 09:04:09;;;;;;;;;;;;;;;-150.27;100.00;61272.81;5213253;28;20030;-74
2022/09/30 09:07:07;;;;;;;11.00;7.97;;;;;;;-150.27;100.00;61272.81;5213236;28;20434;-74
2022/09/30 09:09:57;;;;;;;9.90;8.90;;;;;;;-150.27;100.00;61272.81;5213594;28;20069;-74
2022/09/30 09:12:40;;;;;;;9.60;8.63;;;;;;;-150.27;100.00;61272.81;5212559;28;20073;-73
2022/09/30 09:15:11;;;;;;;10.27;9.30;;;;;;;-150.27;100.00;61272.81;5212887;28;20038;-74
2022/09/30 09:17:52;;;;;;;12.30;8.82;;;;;;;-150.27;100.00;61272.81;5213638;28;20096;-73
2022/09/30 09:20:32;;;;;;;13.98;7.95;;;;;;;-150.27;100.00;61272.81;5227556;28;20026;-73
2022/09/30 09:23:09;;;;;;;11.25;8.18;;;;;;;-150.27;100.00;61272.81;5213785;28;20370;-73
2022/09/30 09:25:43;;;;;;;9.38;7.72;;;;;;;-150.27;100.00;61272.81;5212998;28;20491;-73
2022/09/30 09:28:24;;;;;;;;;;;;;;;-150.27;100.00;61272.81;5213728;28;20034;-74
2022/09/30 09:31:00;;;;;;;10.23;6.70;;;;;;;-150.27;100.00;61272.81;5213148;28;20294;-73
2022/09/30 09:33:38;;;;;;;9.27;6.75;;;;;;;-150.27;100.00;61272.81;5211661;28;20568;-74
2022/09/30 09:36:14;;;;;;;7.97;6.43;;;;;;;-150.27;100.00;61272.81;5212751;28;20026;-73
2022/09/30 09:38:54;;;;;;;7.43;5.90;;;;;;;-150.27;100.00;61272.81;5213126;28;20151;-74
2022/09/30 09:41:36;;;;;;;8.93;5.72;;;;;;;-150.27;100.00;61272.81;5211818;28;20037;-74
2022/09/30 09:44:22;;;;;;;7.10;6.05;;;;;;;-150.27;100.00;61272.81;5213040;28;20034;-73
2022/09/30 09:47:15;;;;;;;7.90;6.00;;;;;;;-150.27;100.00;61272.81;5212798;28;20034;-72
2022/09/30 09:50:11;;;;;;;7.38;6.10;;;;;;;-150.27;100.00;61272.81;5210182;28;20061;-74
2022/09/30 09:53:00;;;;;;;7.53;5.85;;;;;;;-150.27;100.00;61272.81;5211944;28;20481;-71
2022/09/30 09:55:31;;;;;;;11.65;5.78;;;;;;;-150.27;100.00;61272.81;5212246;28;20036;-71
2022/09/30 09:58:04;;;;;;;6.10;4.70;;;;;;;-150.27;100.00;61272.81;5212101;28;20113;-72
2022/09/30 10:03:20;;;;;;;6.55;4.13;;;;;;;-150.27;100.00;61272.81;5210853;28;20041;-73
2022/09/30 10:06:09;;;;;;;7.07;5.22;;;;;;;-150.27;100.00;61272.81;5212402;28;20125;-72
2022/09/30 10:08:55;;;;;;;6.72;5.38;;;;;;;-150.27;100.00;61272.81;5211929;28;20034;-72
2022/09/30 10:11:28;;;;;;;7.15;4.20;;;;;;;-150.27;100.00;61272.81;5210339;28;20542;-73
2022/09/30 10:14:00;;;;;;;6.00;4.60;;;;;;;-150.27;100.00;61272.81;5209201;28;20073;-73
2022/09/30 10:16:36;;;;;;;4.80;4.30;;;;;;;-150.27;100.00;61272.81;5211672;28;20034;-74
2022/09/30 10:19:20;;;;;;;6.55;4.68;;;;;;;-150.27;100.00;61272.81;5211440;28;20025;-73
2022/09/30 10:22:12;;;;;;;4.63;4.00;;;;;;;-150.27;100.00;61272.81;5209520;28;20827;-75
2022/09/30 10:24:44;;;;;;;6.07;4.32;;;;;;;-150.27;100.00;61272.81;5211812;28;20030;-77
2022/09/30 10:27:27;;;;;;;4.35;3.70;;;;;;;-150.27;100.00;61272.81;5215909;28;20033;-72
2022/09/30 10:30:01;;;;;;;6.35;4.50;;;;;;;-150.27;100.00;61272.81;5215868;28;20038;-75
2022/09/30 10:32:32;;;;;;;5.85;4.07;;;;;;;-150.27;100.00;61272.81;5215554;28;20041;-77
2022/09/30 10:35:19;;;;;;;4.63;3.47;;;;;;;-150.27;100.00;61272.81;5215741;28;20018;-73
2022/09/30 10:37:53;;;;;;;6.07;3.88;;;;;;;-150.27;100.00;61272.81;5217083;28;20037;-73
2022/09/30 10:40:29;;;;;;;4.68;3.65;;;;;;;-150.27;100.00;61272.81;5214934;28;20030;-73
2022/09/30 10:43:03;;;;;;;4.72;3.63;;;;;;;-150.27;100.00;61272.81;5215675;28;20018;-72
2022/09/30 10:45:37;;;;;;;4.10;3.70;;;;;;;-150.27;100.00;61272.81;5214649;28;20491;-72
2022/09/30 10:48:18;;;;;;;9.93;4.85;;;;;;;-150.27;100.00;61272.81;5214752;28;20041;-72
2022/09/30 10:50:52;;;;;;;5.50;3.58;;;;;;;-150.27;100.00;61272.81;5214013;28;20026;-73
2022/09/30 10:53:28;;;;;;;4.20;3.10;;;;;;;-150.27;100.00;61272.81;5215045;28;20021;-72
2022/09/30 10:56:04;;;;;;;5.43;2.70;;;;;;;-150.27;100.00;61272.81;5215162;28;20101;-74
2022/09/30 10:58:50;;;;;;;3.08;2.38;;;;;;;-150.27;100.00;61272.81;5215276;28;20053;-76
2022/09/30 11:01:26;;;;;;;4.65;2.25;;;;;;;-150.27;100.00;61272.81;5213689;28;20029;-75
2022/09/30 11:04:24;;;;;;;4.25;2.20;;;;;;;-150.27;100.00;61272.81;5214809;28;20527;-73
2022/09/30 11:07:08;;;;;;;4.05;2.20;;;;;;;-150.27;100.00;61272.81;5217717;28;20401;-74
2022/09/30 11:10:01;;;;;;;4.60;1.80;;;;;;;-150.27;100.00;61272.81;5215499;28;20034;-73
2022/09/30 11:13:06;;;;;;;1.98;1.40;;;;;;;-150.27;100.00;61272.81;5214706;28;20504;-72
2022/09/30 11:16:05;;;;;;;2.97;1.63;;;;;;;-150.27;100.00;61272.81;5213257;28;20113;-72
2022/09/30 11:18:59;;;;;;;2.28;1.80;;;;;;;-150.27;100.00;61272.81;5213709;28;20096;-72
2022/09/30 11:21:54;;;;;;;4.00;2.08;;;;;;;-150.27;100.00;61272.81;5214588;28;20489;-72
2022/09/30 11:24:33;;;;;;;;;;;;;;;-150.27;100.00;61272.81;5225511;28;20468;-72
2022/09/30 11:27:13;;;;;;;4.82;2.63;;;;;;;-150.27;100.00;61272.81;5214463;28;19913;-71
2022/09/30 11:29:56;;;;;;;2.70;1.90;;;;;;;-150.27;100.00;61272.81;5212666;28;20623;-72
2022/09/30 11:33:05;;;;;;;5.90;2.47;;;;;;;-150.27;100.00;61272.81;5212586;28;20018;-71
2022/09/30 11:36:11;;;;;;;4.00;2.50;;;;;;;-150.27;100.00;61272.81;5212832;28;20042;-71
2022/09/30 11:39:01;;;;;;;4.57;1.88;;;;;;;-150.27;100.00;61272.81;5204274;28;20026;-72
2022/09/30 11:41:37;;;;;;;3.33;1.90;;;;;;;-150.27;100.00;61272.81;5212845;28;20022;-71
2022/09/30 11:44:31;;;;;;;3.30;1.90;;;;;;;-150.27;100.00;61272.81;5213868;28;20473;-71
2022/09/30 11:47:24;;;;;;;3.03;1.90;;;;;;;-150.27;100.00;61272.81;5212361;28;20049;-71
2022/09/30 11:49:55;;;;;;;3.40;2.33;;;;;;;-150.27;100.00;61272.81;5213075;28;20040;-72
2022/09/30 11:52:35;;;;;;;6.35;3.15;;;;;;;-150.27;100.00;61272.81;5213824;28;20473;-74